Jump to content

  •  

SOUTHWEST AIRLINES FLIGHT WN2698 FLOWN ON 09-14-2017 BY CAPTAIN JIM BOERMAN

Pilot StatsCaptain Jim Boerman (LDP136) • 4,686.4 total hours • 1,423 total flights [View Logbook]
FLIGHT DETAILS
StatusReceived and approved on 2017-09-14 at 16:09:27
Origin AirportAlbuquerque Intl Sunport (KABQ) • Albuquerque, New Mexico, United States (5,354 feet MSL)
Filed Flight PlanKABQ ABQ J6 ZUN J78 PYRIT J6 DRK J231 HIPPI J10 CADEZ J231 TNP J4 PIONE J10 RUSTT J104 CIVET J107 JUGLI KLAX
Destination AirportLos Angeles Intl (KLAX) • Los Angeles, California, United States (126 feet MSL)
Alternate AirportOntario Intl (KONT) • Ontario, California, United States (944 feet MSL)
AirlineSouthwest Airlines
AircraftBoeing 737-700 | Winglets (73W / B737-700)
FS Aircraft UsedBoeing 737-7H4NGX Southwest Airlines Winglets
Cruising AltitudeFL360
Distance Flown587 nautical miles
Passengers Onboard110 passengers (80.88% full)
DEPARTURE DETAILS
Time Out12:10:41
Taxi Data127,291 lbs total with 13,591 lbs of fuel onboard
Takeoff Data12:20:15 (10 minutes after leaving gate/ramp) • 126,840 lbs total • 9° pitch at 147 knots
Departure METARKABQ 141652Z 00000KT 10SM BKN110 OVC180 23/08 A3014 RMK AO2 SLP126 VCSH SE T02280078
ARRIVAL DETAILS
Landing Data12:59:16 • 118,925 lbs total • 5° pitch doing 117 knots at a rate of -152.25 feet/minute with 4,831 lbs of fuel onboard
Time In13:09:22 (10 minutes after landing)
Ramp Weight118,531 lbs total
Total Fuel Used8,760 lbs
Total Block Time01:58:49 (2 hours) while 20 minutes were spent on the ground
Arrival METARKLAX 141953Z 26014KT 10SM SCT014 BKN050 BKN140 23/16 A2993 RMK AO2 SLP132 T02280156
MISCELLANEOUS DETAILS
LiveDISPATCH Version4.8.3.1
FS Version
FSUIPC Version5.10
OS VersionWindows 7 32-bit
Screen Resolution1920 x 1080
Pilot's CommentsNo Comments Reported
FLIGHT MAP